Time;durP1;ratioP1;P1;durP2;ratioP2;P2;SDS_P1;SDS_P2;PMS_P1;PMS_P2;Temp;Humidity;BMP_temperature;BMP_pressure;BME280_temperature;BME280_humidity;BME280_pressure;Samples;Min_cycle;Max_cycle;Signal;HPM_P1;HPM_P2
2024/01/30 00:00:47;;;;;;;20.80;10.10;;;;;;;0.08;100.00;101948.69;4960073;28;20205;-70
2024/01/30 00:03:13;;;;;;;25.90;12.00;;;;;;;0.10;100.00;101946.19;4957797;28;20692;-70
2024/01/30 00:05:39;;;;;;;18.80;8.43;;;;;;;0.02;100.00;101947.28;4960973;28;20580;-70
2024/01/30 00:08:06;;;;;;;26.00;10.87;;;;;;;-0.03;100.00;101950.41;4969994;28;20258;-70
2024/01/30 00:10:33;;;;;;;21.23;9.87;;;;;;;-0.05;100.00;101936.34;4962510;28;20197;-70
2024/01/30 00:12:59;;;;;;;25.93;10.40;;;;;;;0.00;100.00;101939.34;4969916;28;20252;-71
2024/01/30 00:15:26;;;;;;;28.03;11.00;;;;;;;0.00;100.00;101941.94;4966490;28;20224;-69
2024/01/30 00:17:52;;;;;;;17.57;9.67;;;;;;;0.04;100.00;101938.81;4964257;28;20220;-69
2024/01/30 00:20:20;;;;;;;22.03;10.13;;;;;;;0.07;100.00;101941.66;4965765;28;20337;-70
2024/01/30 00:22:47;;;;;;;22.13;10.07;;;;;;;0.05;100.00;101940.63;4960422;28;20229;-70
2024/01/30 00:25:13;;;;;;;18.27;9.07;;;;;;;0.01;100.00;101937.66;4962704;28;20204;-71
2024/01/30 00:27:40;;;;;;;20.77;8.90;;;;;;;-0.05;100.00;101938.03;4967950;28;20212;-70
2024/01/30 00:30:07;;;;;;;17.80;8.57;;;;;;;-0.15;100.00;101925.97;4967157;28;20209;-71
2024/01/30 00:32:33;;;;;;;22.67;10.87;;;;;;;-0.07;100.00;101947.44;4966484;28;20756;-71
2024/01/30 00:34:59;;;;;;;18.27;10.10;;;;;;;-0.05;100.00;101948.47;4964200;28;20295;-70
2024/01/30 00:37:26;;;;;;;20.63;10.43;;;;;;;0.22;100.00;101948.06;4960135;28;20719;-70
2024/01/30 00:39:52;;;;;;;24.03;11.77;;;;;;;0.29;100.00;101944.25;4963846;28;20558;-70
2024/01/30 00:42:19;;;;;;;21.33;9.97;;;;;;;0.29;100.00;101950.38;4966049;28;20232;-71
2024/01/30 00:44:45;;;;;;;21.47;9.67;;;;;;;0.25;100.00;101944.78;4960116;28;20703;-70
2024/01/30 00:47:12;;;;;;;17.87;8.83;;;;;;;0.27;100.00;101946.72;4959258;28;20289;-70
2024/01/30 00:49:38;;;;;;;25.77;10.47;;;;;;;0.19;100.00;101945.22;4968048;28;20350;-70
2024/01/30 00:52:05;;;;;;;19.13;9.17;;;;;;;0.20;100.00;101953.94;4960832;28;20209;-71
2024/01/30 00:54:32;;;;;;;23.77;10.43;;;;;;;0.13;100.00;101949.03;4962299;28;20208;-70
2024/01/30 00:56:59;;;;;;;20.37;10.27;;;;;;;0.10;100.00;101949.72;4966107;28;20241;-71
2024/01/30 00:59:25;;;;;;;23.77;9.90;;;;;;;-0.01;100.00;101945.31;4962380;28;20995;-69
2024/01/30 01:01:51;;;;;;;24.07;10.53;;;;;;;-0.04;100.00;101947.66;4972660;28;20202;-70
2024/01/30 01:04:18;;;;;;;22.77;9.03;;;;;;;-0.01;100.00;101947.91;4963071;28;20668;-71
2024/01/30 01:06:45;;;;;;;19.97;10.30;;;;;;;-0.04;100.00;101943.38;4964298;28;20205;-70
2024/01/30 01:09:12;;;;;;;24.60;9.53;;;;;;;0.09;100.00;101941.78;4960827;28;20216;-70
2024/01/30 01:11:38;;;;;;;22.50;8.90;;;;;;;0.11;100.00;101940.19;4964717;28;20210;-70
2024/01/30 01:14:05;;;;;;;19.10;9.43;;;;;;;0.15;100.00;101948.38;4961437;28;20675;-70
2024/01/30 01:16:31;;;;;;;21.77;8.93;;;;;;;0.07;100.00;101944.25;4962471;28;20748;-70
2024/01/30 01:18:57;;;;;;;14.83;8.07;;;;;;;0.04;100.00;101943.09;4965521;28;20228;-70
2024/01/30 01:21:24;;;;;;;22.27;8.43;;;;;;;-0.02;100.00;101939.19;4963360;28;20239;-71
2024/01/30 01:23:51;;;;;;;22.93;8.90;;;;;;;-0.15;100.00;101946.81;4964275;28;20214;-70
2024/01/30 01:26:17;;;;;;;22.70;8.70;;;;;;;-0.27;100.00;101948.44;4957854;28;20201;-70
2024/01/30 01:28:44;;;;;;;21.43;9.57;;;;;;;-0.35;100.00;101952.09;4965003;28;20200;-71
2024/01/30 01:31:10;;;;;;;22.40;9.07;;;;;;;-0.40;100.00;101949.13;4965279;28;20655;-70
2024/01/30 01:33:37;;;;;;;20.10;9.27;;;;;;;-0.43;100.00;101948.84;4963456;28;20228;-70
2024/01/30 01:36:04;;;;;;;19.47;8.97;;;;;;;-0.47;100.00;101938.06;4963349;28;20218;-69
2024/01/30 01:38:31;;;;;;;21.13;9.03;;;;;;;-0.45;100.00;101942.63;4966413;28;20194;-70
2024/01/30 01:40:57;;;;;;;20.30;9.13;;;;;;;-0.42;100.00;101942.88;4978461;28;20236;-70
2024/01/30 01:43:23;;;;;;;21.13;9.63;;;;;;;-0.44;100.00;101939.22;4966499;28;20213;-71
2024/01/30 01:45:50;;;;;;;23.53;9.23;;;;;;;-0.44;100.00;101949.63;4965794;28;20217;-70
2024/01/30 01:48:17;;;;;;;18.93;9.40;;;;;;;-0.42;100.00;101940.25;4960818;28;20305;-70
2024/01/30 01:50:44;;;;;;;19.60;9.50;;;;;;;-0.41;100.00;101938.56;4979949;28;20240;-70
2024/01/30 01:53:12;;;;;;;22.37;9.37;;;;;;;-0.21;100.00;101938.50;4960503;28;20253;-72
2024/01/30 01:55:38;;;;;;;28.03;11.67;;;;;;;-0.24;100.00;101937.34;4969135;28;20201;-70
2024/01/30 01:58:05;;;;;;;24.70;10.77;;;;;;;-0.04;100.00;101937.25;4968042;28;20240;-71
2024/01/30 02:00:32;;;;;;;23.83;10.87;;;;;;;-0.02;100.00;101933.97;4965811;28;20219;-71
2024/01/30 02:02:59;;;;;;;22.63;10.80;;;;;;;-0.03;100.00;101944.28;4966022;28;20224;-70
2024/01/30 02:05:26;;;;;;;18.90;8.90;;;;;;;-0.18;100.00;101925.75;4971071;28;20642;-70
2024/01/30 02:07:53;;;;;;;21.63;10.10;;;;;;;-0.14;100.00;101932.09;4964032;28;20208;-70
2024/01/30 02:10:20;;;;;;;25.90;11.90;;;;;;;-0.14;100.00;101927.81;4968265;28;20594;-71
2024/01/30 02:12:46;;;;;;;24.90;10.57;;;;;;;-0.06;100.00;101929.31;4967335;28;20220;-71
2024/01/30 02:15:13;;;;;;;21.43;9.33;;;;;;;-0.04;100.00;101926.84;4964091;28;20600;-70
2024/01/30 02:17:40;;;;;;;27.50;10.77;;;;;;;0.03;100.00;101936.06;4966882;28;20226;-70
2024/01/30 02:20:07;;;;;;;24.63;9.63;;;;;;;-0.04;100.00;101934.66;4966353;28;20217;-71
2024/01/30 02:22:35;;;;;;;20.03;9.27;;;;;;;-0.03;100.00;101929.56;4962972;28;20232;-70
2024/01/30 02:25:01;;;;;;;24.27;10.93;;;;;;;0.05;100.00;101935.41;4971043;28;20198;-70
2024/01/30 02:27:28;;;;;;;26.67;9.50;;;;;;;-0.07;100.00;101924.91;4972206;28;20199;-70
2024/01/30 02:29:54;;;;;;;23.93;10.20;;;;;;;-0.16;100.00;101937.19;4968751;28;20649;-70
2024/01/30 02:32:21;;;;;;;22.80;8.70;;;;;;;-0.24;100.00;101934.75;4969282;28;20252;-70
2024/01/30 02:34:47;;;;;;;22.17;9.10;;;;;;;-0.34;100.00;101934.00;4964659;28;20197;-70
2024/01/30 02:37:13;;;;;;;18.13;9.03;;;;;;;-0.18;100.00;101935.25;4967193;28;20217;-70
2024/01/30 02:39:40;;;;;;;22.30;10.23;;;;;;;-0.28;100.00;101941.41;4961335;28;20209;-70
2024/01/30 02:42:06;;;;;;;20.23;9.50;;;;;;;-0.27;100.00;101939.72;4958903;28;20626;-71
2024/01/30 02:44:33;;;;;;;20.27;9.03;;;;;;;-0.27;100.00;101932.81;4967634;28;20194;-70
2024/01/30 02:46:59;;;;;;;19.67;10.07;;;;;;;-0.42;100.00;101931.53;4969520;28;20201;-70
2024/01/30 02:49:25;;;;;;;17.13;8.27;;;;;;;-0.54;100.00;101927.94;4967977;28;20224;-70
2024/01/30 02:51:53;;;;;;;17.60;9.10;;;;;;;-0.67;100.00;101928.63;4967096;28;20566;-70
2024/01/30 02:54:20;;;;;;;27.97;9.03;;;;;;;-0.72;100.00;101933.47;4963855;28;20306;-71
2024/01/30 02:56:48;;;;;;;21.13;8.87;;;;;;;-0.74;100.00;101926.31;4977943;28;20224;-70
2024/01/30 02:59:14;;;;;;;17.80;8.00;;;;;;;-0.77;100.00;101926.06;4966898;28;20199;-71
2024/01/30 03:01:44;;;;;;;20.50;8.40;;;;;;;-0.81;100.00;101919.66;4961678;28;20289;-70
2024/01/30 03:04:11;;;;;;;17.77;7.47;;;;;;;-0.78;100.00;101921.66;4969422;28;20291;-70
2024/01/30 03:06:38;;;;;;;17.87;7.47;;;;;;;-0.73;100.00;101917.72;4962793;28;20196;-70
2024/01/30 03:09:04;;;;;;;20.17;8.73;;;;;;;-0.57;100.00;101923.41;4965747;28;20202;-70
2024/01/30 03:11:31;;;;;;;14.03;7.23;;;;;;;-0.35;100.00;101923.47;4964632;28;20201;-71
2024/01/30 03:14:00;;;;;;;18.03;8.30;;;;;;;-0.33;100.00;101921.91;4964761;28;20218;-70
2024/01/30 03:16:26;;;;;;;16.53;7.77;;;;;;;-0.43;100.00;101922.81;4963224;28;20221;-71
2024/01/30 03:18:53;;;;;;;15.77;7.97;;;;;;;-0.53;100.00;101921.97;4961662;28;20208;-70
2024/01/30 03:21:20;;;;;;;20.97;7.27;;;;;;;-0.69;100.00;101917.19;4968382;28;20212;-71
2024/01/30 03:23:46;;;;;;;17.47;7.10;;;;;;;-0.76;100.00;101921.00;4967188;28;20236;-70
2024/01/30 03:26:13;;;;;;;23.00;8.20;;;;;;;-0.72;100.00;101929.97;4961188;28;20291;-70
2024/01/30 03:28:39;;;;;;;19.27;8.27;;;;;;;-0.83;100.00;101926.44;4962720;28;20710;-70
2024/01/30 03:31:06;;;;;;;15.23;7.17;;;;;;;-0.70;100.00;101928.38;4957796;28;20686;-70
2024/01/30 03:33:33;;;;;;;15.47;7.67;;;;;;;-0.56;100.00;101924.31;4965867;28;20312;-71
2024/01/30 03:36:03;;;;;;;20.30;9.30;;;;;;;-0.58;100.00;101916.38;4969656;28;20307;-71
2024/01/30 03:38:35;;;;;;;15.93;7.30;;;;;;;-0.72;100.00;101924.75;4963773;28;20219;-71
2024/01/30 03:41:01;;;;;;;15.93;7.03;;;;;;;-0.81;100.00;101923.97;4967410;28;20196;-72
2024/01/30 03:43:27;;;;;;;21.57;7.57;;;;;;;-0.68;100.00;101922.53;4966742;28;20230;-71
2024/01/30 03:45:54;;;;;;;14.83;6.37;;;;;;;-0.76;100.00;101926.19;4961478;28;20216;-71
2024/01/30 03:48:21;;;;;;;15.87;7.97;;;;;;;-0.84;100.00;101921.13;4969171;28;20266;-72
2024/01/30 03:50:47;;;;;;;20.43;8.17;;;;;;;-0.88;100.00;101924.25;4959609;28;20214;-71
2024/01/30 03:53:13;;;;;;;20.23;7.23;;;;;;;-0.82;100.00;101922.16;4964828;28;20233;-71
2024/01/30 03:55:40;;;;;;;20.60;8.53;;;;;;;-0.65;100.00;101908.88;4965277;28;20209;-71
2024/01/30 03:58:06;;;;;;;22.37;10.23;;;;;;;-0.59;100.00;101911.06;4961825;28;20228;-71
2024/01/30 04:00:33;;;;;;;16.40;8.37;;;;;;;-0.49;100.00;101919.72;4963465;28;20201;-71
2024/01/30 04:02:59;;;;;;;27.57;10.00;;;;;;;-0.46;100.00;101919.97;4965888;28;20272;-71
2024/01/30 04:05:26;;;;;;;25.70;10.53;;;;;;;-0.33;100.00;101915.00;4965681;28;20209;-72
2024/01/30 04:07:52;;;;;;;20.73;9.07;;;;;;;-0.20;100.00;101913.38;4978690;28;20201;-71
2024/01/30 04:10:19;;;;;;;17.70;9.40;;;;;;;-0.17;100.00;101913.63;4963520;28;20207;-71
2024/01/30 04:12:45;;;;;;;20.10;8.83;;;;;;;-0.15;100.00;101915.56;4969432;28;20221;-72
2024/01/30 04:15:13;;;;;;;22.27;10.60;;;;;;;-0.20;100.00;101919.50;4966143;28;20272;-71
2024/01/30 04:17:40;;;;;;;24.33;10.47;;;;;;;-0.22;100.00;101920.16;4966676;28;20676;-71
2024/01/30 04:20:06;;;;;;;24.33;11.07;;;;;;;-0.23;100.00;101910.53;4967047;28;20259;-71
2024/01/30 04:22:33;;;;;;;21.23;8.87;;;;;;;-0.35;100.00;101905.25;4977555;28;20223;-71
2024/01/30 04:25:02;;;;;;;22.53;10.17;;;;;;;-0.45;100.00;101907.88;4967895;28;20198;-71
2024/01/30 04:27:29;;;;;;;20.63;9.87;;;;;;;-0.55;100.00;101903.63;4966285;28;20199;-71
2024/01/30 04:29:55;;;;;;;19.73;9.30;;;;;;;-0.61;100.00;101917.81;4971469;28;20207;-71
2024/01/30 04:32:22;;;;;;;21.33;9.10;;;;;;;-0.70;100.00;101910.19;4968954;28;20217;-72
2024/01/30 04:34:48;;;;;;;23.67;9.33;;;;;;;-0.73;100.00;101916.03;4964694;28;20205;-71
2024/01/30 04:37:15;;;;;;;21.80;9.67;;;;;;;-0.77;100.00;101915.66;4960796;28;20310;-71
2024/01/30 04:39:41;;;;;;;25.90;10.70;;;;;;;-0.81;100.00;101913.56;4968747;28;20207;-71
2024/01/30 04:42:07;;;;;;;18.47;9.07;;;;;;;-0.81;100.00;101917.06;4968254;28;20200;-71
2024/01/30 04:44:35;;;;;;;27.87;10.80;;;;;;;-0.85;100.00;101907.19;4963190;28;20207;-72
2024/01/30 04:47:01;;;;;;;20.03;8.17;;;;;;;-0.83;100.00;101915.13;4961757;28;20197;-72
2024/01/30 04:49:29;;;;;;;22.87;10.43;;;;;;;-0.76;100.00;101909.69;4967866;28;20216;-71
2024/01/30 04:51:56;;;;;;;17.60;8.60;;;;;;;-0.72;100.00;101915.25;4959018;28;20230;-71
2024/01/30 04:54:22;;;;;;;20.53;9.10;;;;;;;-0.68;100.00;101914.72;4969267;28;20216;-72
2024/01/30 04:56:49;;;;;;;29.63;9.80;;;;;;;-0.66;100.00;101923.56;4969146;28;20267;-71
2024/01/30 04:59:15;;;;;;;20.77;9.17;;;;;;;-0.63;100.00;101923.81;4969292;28;20224;-71
2024/01/30 05:01:42;;;;;;;28.73;9.93;;;;;;;-0.57;100.00;101925.09;4958683;28;20214;-71
2024/01/30 05:04:09;;;;;;;19.23;8.60;;;;;;;-0.53;100.00;101921.97;4959427;28;20303;-71
2024/01/30 05:06:39;;;;;;;35.23;9.20;;;;;;;-0.41;100.00;101925.56;4962422;28;20289;-71
2024/01/30 05:09:06;;;;;;;25.20;11.47;;;;;;;-0.33;100.00;101922.81;4970501;28;20213;-71
2024/01/30 05:11:40;;;;;;;17.57;8.40;;;;;;;-0.35;100.00;101920.88;4970769;28;20209;-71
2024/01/30 05:14:07;;;;;;;24.53;11.33;;;;;;;-0.40;100.00;101923.09;4969061;28;20711;-72
2024/01/30 05:16:33;;;;;;;24.47;9.50;;;;;;;-0.46;100.00;101914.78;4965989;28;20747;-71
2024/01/30 05:19:00;;;;;;;22.37;9.10;;;;;;;-0.43;100.00;101921.91;4971901;28;20664;-71
2024/01/30 05:21:29;;;;;;;18.53;8.93;;;;;;;-0.24;100.00;101934.75;4970231;28;20681;-71
2024/01/30 05:23:55;;;;;;;34.53;8.43;;;;;;;-0.29;100.00;101926.56;4968339;28;20315;-72
2024/01/30 05:26:22;;;;;;;20.70;9.10;;;;;;;-0.27;100.00;101925.00;4968428;28;20200;-71
2024/01/30 05:28:49;;;;;;;19.33;8.17;;;;;;;-0.24;100.00;101933.06;4963564;28;20397;-71
2024/01/30 05:31:15;;;;;;;23.67;8.13;;;;;;;-0.30;100.00;101935.16;4965060;28;20569;-71
2024/01/30 05:33:42;;;;;;;20.43;8.70;;;;;;;-0.40;100.00;101935.19;4967082;28;20217;-71
2024/01/30 05:36:11;;;;;;;19.73;8.20;;;;;;;-0.39;100.00;101932.72;4965014;28;20203;-71
2024/01/30 05:38:38;;;;;;;17.00;8.73;;;;;;;-0.40;100.00;101933.53;4972171;28;20754;-72
2024/01/30 05:41:04;;;;;;;15.60;7.47;;;;;;;-0.41;100.00;101929.06;4964377;28;20196;-70
2024/01/30 05:43:31;;;;;;;17.77;7.60;;;;;;;-0.43;100.00;101921.91;4971760;28;20222;-71
2024/01/30 05:45:57;;;;;;;17.83;7.23;;;;;;;-0.44;100.00;101917.50;4962756;28;20287;-72
2024/01/30 05:48:24;;;;;;;24.33;9.53;;;;;;;-0.45;100.00;101924.41;4975254;28;20688;-71
2024/01/30 05:50:50;;;;;;;15.80;8.00;;;;;;;-0.41;100.00;101930.75;4977477;28;20294;-71
2024/01/30 05:53:17;;;;;;;18.50;8.33;;;;;;;-0.51;100.00;101931.72;4975491;28;20235;-71
2024/01/30 05:55:44;;;;;;;28.17;16.00;;;;;;;-0.59;100.00;101929.25;4971121;28;20228;-71
2024/01/30 05:58:11;;;;;;;20.33;8.27;;;;;;;-0.63;100.00;101930.72;4962685;28;20305;-71
2024/01/30 06:00:37;;;;;;;17.63;7.20;;;;;;;-0.64;100.00;101939.28;4973126;28;20222;-72
2024/01/30 06:03:04;;;;;;;20.67;7.47;;;;;;;-0.81;100.00;101918.75;4966127;28;20783;-71
2024/01/30 06:05:30;;;;;;;11.07;6.37;;;;;;;-0.85;100.00;101935.81;4971105;28;20222;-72
2024/01/30 06:07:57;;;;;;;19.97;7.93;;;;;;;-1.01;100.00;101928.44;4962096;28;20199;-71
2024/01/30 06:10:23;;;;;;;18.30;8.50;;;;;;;-1.09;100.00;101934.69;4979423;28;20303;-71
2024/01/30 06:12:50;;;;;;;16.80;8.53;;;;;;;-1.20;100.00;101931.94;4971952;28;20221;-71
2024/01/30 06:15:16;;;;;;;19.00;8.80;;;;;;;-1.32;100.00;101929.19;4966479;28;20196;-71
2024/01/30 06:17:42;;;;;;;18.93;8.83;;;;;;;-1.30;100.00;101938.03;4966293;28;20239;-71
2024/01/30 06:20:10;;;;;;;15.67;7.93;;;;;;;-1.36;100.00;101941.03;4974954;28;20202;-71
2024/01/30 06:22:36;;;;;;;19.70;8.33;;;;;;;-1.41;100.00;101941.41;4982767;28;20319;-72
2024/01/30 06:25:03;;;;;;;16.50;7.63;;;;;;;-1.44;100.00;101936.88;4959946;28;20211;-69
2024/01/30 06:27:30;;;;;;;15.13;6.73;;;;;;;-1.48;100.00;101936.47;4961660;28;20215;-69
2024/01/30 06:29:56;;;;;;;20.67;8.17;;;;;;;-1.48;100.00;101947.78;4975665;28;20287;-68
2024/01/30 06:32:22;;;;;;;21.43;8.80;;;;;;;-1.49;100.00;101938.16;4974748;28;20317;-70
2024/01/30 06:34:49;;;;;;;15.90;8.77;;;;;;;-1.52;100.00;101947.38;4968623;28;20196;-70
2024/01/30 06:37:15;;;;;;;23.07;9.20;;;;;;;-1.52;100.00;101949.97;4964107;28;20225;-69
2024/01/30 06:39:41;;;;;;;17.73;9.43;;;;;;;-1.54;100.00;101952.44;4961906;28;20211;-69
2024/01/30 06:42:08;;;;;;;17.87;8.07;;;;;;;-1.59;100.00;101946.88;4967348;28;20314;-69
2024/01/30 06:44:34;;;;;;;16.53;8.40;;;;;;;-1.58;100.00;101948.69;4965569;28;20221;-70
2024/01/30 06:47:01;;;;;;;17.53;7.97;;;;;;;-1.68;100.00;101940.84;4971800;28;20209;-70
2024/01/30 06:49:27;;;;;;;18.40;7.63;;;;;;;-1.67;100.00;101947.88;4969910;28;20214;-71
2024/01/30 06:51:54;;;;;;;24.93;8.73;;;;;;;-1.65;100.00;101943.72;4968209;28;20595;-70
2024/01/30 06:54:20;;;;;;;16.47;6.70;;;;;;;-1.60;100.00;101941.53;4966348;28;20235;-71
2024/01/30 06:56:46;;;;;;;14.97;7.50;;;;;;;-1.64;100.00;101940.34;4968994;28;20591;-69
2024/01/30 06:59:13;;;;;;;15.97;6.43;;;;;;;-1.58;100.00;101945.19;4960650;28;20219;-71
2024/01/30 07:01:39;;;;;;;19.73;8.07;;;;;;;-1.63;100.00;101942.16;4974102;28;20213;-74
2024/01/30 07:04:06;;;;;;;17.40;8.10;;;;;;;-1.64;100.00;101936.81;4965591;28;20692;-73
2024/01/30 07:06:33;;;;;;;11.70;6.53;;;;;;;-1.60;100.00;101933.75;4966137;28;20225;-73
2024/01/30 07:08:59;;;;;;;15.47;6.90;;;;;;;-1.48;100.00;101940.00;4954819;28;20304;-71
2024/01/30 07:11:26;;;;;;;13.67;6.60;;;;;;;-1.37;100.00;101954.81;4957906;28;20259;-71
2024/01/30 07:13:54;;;;;;;11.87;5.10;;;;;;;-1.40;100.00;101943.25;4959408;28;20215;-71
2024/01/30 07:16:22;;;;;;;17.07;7.70;;;;;;;-1.39;100.00;101953.75;4963626;28;20708;-70
2024/01/30 07:18:49;;;;;;;17.13;6.93;;;;;;;-1.39;100.00;101956.34;4984014;28;20217;-70
2024/01/30 07:21:15;;;;;;;25.00;12.60;;;;;;;-1.44;100.00;101923.88;4972192;28;20232;-71
2024/01/30 07:23:42;;;;;;;14.00;7.07;;;;;;;-1.36;100.00;101946.22;4970706;28;20266;-70
2024/01/30 07:26:09;;;;;;;21.93;8.97;;;;;;;-1.26;100.00;101946.22;4964498;28;20201;-68
2024/01/30 07:28:35;;;;;;;14.47;6.37;;;;;;;-1.19;100.00;101952.88;4972606;28;20722;-70
2024/01/30 07:31:02;;;;;;;18.07;7.07;;;;;;;-1.12;100.00;101947.41;4978952;28;20237;-69
2024/01/30 07:33:28;;;;;;;21.33;9.77;;;;;;;-1.04;100.00;101950.66;4968897;28;20297;-70
2024/01/30 07:35:55;;;;;;;19.03;7.50;;;;;;;-0.99;100.00;101949.34;4964967;28;20758;-69
2024/01/30 07:38:21;;;;;;;17.47;8.93;;;;;;;-0.96;100.00;101947.91;4972839;28;20986;-69
2024/01/30 07:40:47;;;;;;;17.80;9.07;;;;;;;-0.90;100.00;101949.22;4970698;28;20588;-70
2024/01/30 07:43:14;;;;;;;14.43;8.53;;;;;;;-0.84;100.00;101954.91;4967723;28;20711;-69
2024/01/30 07:45:40;;;;;;;20.47;8.80;;;;;;;-0.83;100.00;101957.66;4968434;28;20676;-70
2024/01/30 07:48:07;;;;;;;22.60;8.57;;;;;;;-0.80;100.00;101957.94;4969205;28;20248;-69
2024/01/30 07:50:34;;;;;;;19.80;7.83;;;;;;;-0.75;100.00;101967.03;4968024;28;20447;-70
2024/01/30 07:53:01;;;;;;;25.70;8.77;;;;;;;-0.56;100.00;101960.75;4965977;28;20306;-69
2024/01/30 07:55:28;;;;;;;16.90;8.83;;;;;;;-0.41;100.00;101964.59;4966702;28;20200;-70
2024/01/30 07:57:55;;;;;;;21.17;9.60;;;;;;;-0.45;100.00;101959.91;4962466;28;20454;-70
2024/01/30 08:00:22;;;;;;;20.67;8.97;;;;;;;-0.45;100.00;101967.72;4966783;28;20486;-71
2024/01/30 08:02:48;;;;;;;25.10;9.57;;;;;;;-0.39;100.00;101983.88;4969519;28;20220;-71
2024/01/30 08:05:15;;;;;;;20.53;8.57;;;;;;;-0.29;100.00;101978.63;4967479;28;20199;-70
2024/01/30 08:07:45;;;;;;;21.23;9.97;;;;;;;-0.15;100.00;101978.06;4969356;28;20211;-71
2024/01/30 08:10:15;;;;;;;21.50;10.37;;;;;;;-0.09;100.00;101969.81;4968787;28;20209;-71
2024/01/30 08:12:41;;;;;;;27.93;10.23;;;;;;;0.08;100.00;101977.31;4969581;28;20283;-70
2024/01/30 08:15:08;;;;;;;22.23;10.00;;;;;;;0.22;100.00;101974.13;4967848;28;20201;-71
2024/01/30 08:17:35;;;;;;;29.87;11.97;;;;;;;0.32;100.00;101971.44;4965488;28;20260;-70
2024/01/30 08:20:03;;;;;;;24.17;11.53;;;;;;;0.53;100.00;101973.94;4968565;28;20205;-70
2024/01/30 08:22:30;;;;;;;28.57;14.23;;;;;;;0.67;100.00;101978.53;4968971;28;20252;-72
2024/01/30 08:24:57;;;;;;;23.37;11.23;;;;;;;0.78;100.00;101971.53;4974895;28;20207;-70
2024/01/30 08:27:23;;;;;;;31.57;13.27;;;;;;;0.83;100.00;101978.97;4963780;28;20288;-70
2024/01/30 08:29:50;;;;;;;22.80;11.73;;;;;;;0.85;100.00;101980.00;4968736;28;20870;-70
2024/01/30 08:32:16;;;;;;;29.63;13.50;;;;;;;0.85;100.00;101973.88;4967647;28;20240;-71
2024/01/30 08:34:43;;;;;;;33.47;12.93;;;;;;;0.86;100.00;101978.28;4968233;28;20208;-69
2024/01/30 08:37:09;;;;;;;26.80;12.70;;;;;;;0.84;100.00;101983.38;4965815;28;20255;-70
2024/01/30 08:39:36;;;;;;;31.10;14.80;;;;;;;0.92;100.00;101976.16;4964619;28;20225;-70
2024/01/30 08:42:02;;;;;;;30.47;12.87;;;;;;;1.03;100.00;101975.28;4964462;28;20678;-69
2024/01/30 08:44:29;;;;;;;27.60;13.33;;;;;;;1.15;100.00;101967.47;4969598;28;20197;-72
2024/01/30 08:46:55;;;;;;;32.53;15.07;;;;;;;1.15;100.00;101963.16;4971115;28;20197;-72
2024/01/30 08:49:22;;;;;;;34.50;14.63;;;;;;;1.14;100.00;101970.88;4972243;28;20670;-69
2024/01/30 08:51:50;;;;;;;28.80;13.73;;;;;;;1.18;100.00;101960.78;4971903;28;20581;-69
2024/01/30 08:54:17;;;;;;;27.00;13.10;;;;;;;1.23;100.00;101979.41;4973260;28;20217;-70
2024/01/30 08:56:44;;;;;;;26.63;13.33;;;;;;;1.31;100.00;101973.06;4974709;28;20209;-70
2024/01/30 08:59:11;;;;;;;26.70;13.47;;;;;;;1.38;100.00;101983.19;4971685;28;20224;-70
2024/01/30 09:01:39;;;;;;;25.23;13.97;;;;;;;1.51;100.00;101983.28;4971841;28;20606;-69
2024/01/30 09:04:09;;;;;;;28.03;13.77;;;;;;;1.49;100.00;101991.81;4969010;28;20376;-69
2024/01/30 09:06:39;;;;;;;28.97;14.70;;;;;;;1.67;100.00;101981.84;4977833;28;20202;-72
2024/01/30 09:09:06;;;;;;;29.53;14.17;;;;;;;1.86;100.00;101972.84;4973137;28;20221;-70
2024/01/30 09:11:32;;;;;;;34.00;16.63;;;;;;;1.95;100.00;101966.47;4980332;28;20280;-70
2024/01/30 09:13:58;;;;;;;29.60;13.87;;;;;;;1.93;100.00;101973.31;4972089;28;20728;-72
2024/01/30 09:16:25;;;;;;;28.83;14.23;;;;;;;1.99;100.00;101966.81;4968528;28;20254;-70
2024/01/30 09:18:51;;;;;;;31.77;15.87;;;;;;;2.06;100.00;101970.81;4974145;28;20591;-69
2024/01/30 09:21:18;;;;;;;32.40;14.53;;;;;;;2.05;100.00;101990.81;4975714;28;20661;-70
2024/01/30 09:23:44;;;;;;;33.50;15.53;;;;;;;1.94;100.00;101973.41;4969067;28;20292;-72
2024/01/30 09:26:12;;;;;;;34.10;15.20;;;;;;;2.11;100.00;101985.13;4966571;28;20361;-71
2024/01/30 09:28:39;;;;;;;27.60;13.43;;;;;;;2.29;100.00;101986.44;4971830;28;20268;-70
2024/01/30 09:31:09;;;;;;;29.53;14.37;;;;;;;2.40;100.00;101988.13;4983263;28;20202;-72
2024/01/30 09:33:36;;;;;;;33.47;16.33;;;;;;;2.29;100.00;101998.59;4972917;28;20620;-69
2024/01/30 09:36:03;;;;;;;36.30;16.43;;;;;;;2.31;100.00;101992.69;4972589;28;20502;-71
2024/01/30 09:38:29;;;;;;;34.40;16.03;;;;;;;2.58;100.00;101998.97;4969817;28;20218;-71
2024/01/30 09:40:56;;;;;;;31.57;15.23;;;;;;;2.69;100.00;101984.94;4982909;28;20613;-71
2024/01/30 09:43:23;;;;;;;34.27;15.10;;;;;;;2.84;100.00;101987.75;4972654;28;20214;-70
2024/01/30 09:45:54;;;;;;;33.23;16.57;;;;;;;2.84;100.00;101998.22;4972808;28;20300;-70
2024/01/30 09:48:21;;;;;;;32.47;17.07;;;;;;;2.97;100.00;101990.41;4971884;28;20285;-70
2024/01/30 09:50:47;;;;;;;30.50;14.67;;;;;;;3.18;100.00;101992.66;4972567;28;20215;-70
2024/01/30 09:53:14;;;;;;;32.60;16.23;;;;;;;3.26;100.00;101991.50;4968546;28;20230;-70
2024/01/30 09:55:43;;;;;;;31.17;16.00;;;;;;;3.17;100.00;101985.63;4969589;28;20584;-70
2024/01/30 09:58:09;;;;;;;34.27;16.00;;;;;;;3.21;100.00;101993.81;4976337;28;20222;-72
2024/01/30 10:00:36;;;;;;;34.03;17.13;;;;;;;3.12;100.00;101998.41;4975982;28;20205;-71
2024/01/30 10:03:03;;;;;;;34.93;17.00;;;;;;;3.09;100.00;102001.72;4971328;28;20224;-70
2024/01/30 10:05:33;;;;;;;34.53;17.50;;;;;;;3.21;100.00;102000.75;4970145;28;20666;-70
2024/01/30 10:08:00;;;;;;;32.20;16.50;;;;;;;3.29;100.00;101991.72;4977979;28;20203;-70
2024/01/30 10:10:28;;;;;;;38.17;17.37;;;;;;;3.30;100.00;101988.28;4968700;28;20214;-69
2024/01/30 10:12:55;;;;;;;34.53;17.40;;;;;;;3.38;100.00;101980.16;4971968;28;20217;-70
2024/01/30 10:15:21;;;;;;;32.90;17.77;;;;;;;3.33;100.00;101972.78;4972202;28;20207;-70
2024/01/30 10:17:48;;;;;;;30.43;17.17;;;;;;;3.34;100.00;101978.13;4972266;28;20220;-70
2024/01/30 10:20:14;;;;;;;32.00;16.93;;;;;;;3.51;100.00;101963.53;4968074;28;20219;-70
2024/01/30 10:22:45;;;;;;;39.23;17.83;;;;;;;3.64;100.00;101962.66;4971318;28;20218;-70
2024/01/30 10:25:11;;;;;;;33.20;16.67;;;;;;;3.70;100.00;101961.34;4961983;28;20197;-70
2024/01/30 10:27:39;;;;;;;33.70;18.33;;;;;;;3.68;100.00;101956.81;4971935;28;20260;-70
2024/01/30 10:30:07;;;;;;;33.20;17.00;;;;;;;3.90;100.00;101961.75;4969394;28;20268;-69
2024/01/30 10:32:33;;;;;;;33.03;18.10;;;;;;;3.90;100.00;101965.25;4954857;28;20221;-72
2024/01/30 10:35:00;;;;;;;32.63;17.87;;;;;;;4.01;100.00;101960.75;4972166;28;20452;-72
2024/01/30 10:37:31;;;;;;;34.67;17.07;;;;;;;4.22;100.00;101966.44;4971172;28;20236;-71
2024/01/30 10:40:03;;;;;;;29.77;16.50;;;;;;;4.33;100.00;101970.66;4970967;28;20295;-71
2024/01/30 10:42:32;;;;;;;33.77;17.00;;;;;;;4.53;100.00;101966.69;4968120;28;20217;-71
2024/01/30 10:45:09;;;;;;;28.17;15.90;;;;;;;4.67;100.00;101950.06;4963601;28;20232;-74
2024/01/30 10:47:37;;;;;;;29.50;16.17;;;;;;;5.02;100.00;101958.41;4966821;28;20256;-74
2024/01/30 10:50:05;;;;;;;31.50;16.50;;;;;;;5.15;100.00;101956.50;4970634;28;20284;-74
2024/01/30 10:52:32;;;;;;;30.27;16.30;;;;;;;5.28;100.00;101952.09;4969096;28;20233;-73
2024/01/30 10:55:00;;;;;;;34.50;16.73;;;;;;;5.16;100.00;101964.47;4971629;28;20262;-73
2024/01/30 10:57:27;;;;;;;29.37;15.70;;;;;;;5.15;100.00;101967.91;4969743;28;20201;-74
2024/01/30 10:59:59;;;;;;;27.97;15.87;;;;;;;5.31;100.00;101961.88;4972323;28;20244;-73
2024/01/30 11:02:29;;;;;;;30.23;15.10;;;;;;;5.19;100.00;101959.41;4976413;28;20650;-74
2024/01/30 11:04:58;;;;;;;30.40;15.37;;;;;;;5.20;100.00;101944.56;4969762;28;20201;-73
2024/01/30 11:07:29;;;;;;;28.93;14.83;;;;;;;5.35;100.00;101949.00;4971754;28;20198;-73